createdAt,value
2023-04-09T00:05:56.906Z,14.67
2023-04-09T00:12:50.606Z,13.17
2023-04-09T00:19:38.459Z,12.47
2023-04-09T00:22:09.292Z,13.10
2023-04-09T00:24:38.592Z,13.40
2023-04-09T00:27:07.590Z,11.50
2023-04-09T00:29:37.191Z,13.40
2023-04-09T00:32:06.726Z,12.13
2023-04-09T00:34:36.214Z,11.00
2023-04-09T00:37:05.907Z,12.60
2023-04-09T00:39:36.748Z,13.10
2023-04-09T00:42:06.350Z,14.07
2023-04-09T00:44:35.440Z,13.93
2023-04-09T00:51:22.902Z,13.30
2023-04-09T00:53:52.394Z,12.67
2023-04-09T01:00:47.220Z,12.60
2023-04-09T01:03:16.693Z,13.73
2023-04-09T01:10:07.442Z,14.60
2023-04-09T01:17:13.940Z,16.63
2023-04-09T01:19:47.127Z,16.40
2023-04-09T01:26:43.789Z,15.57
2023-04-09T01:29:15.545Z,15.70
2023-04-09T01:36:03.073Z,15.63
2023-04-09T01:38:31.986Z,15.80
2023-04-09T01:41:01.713Z,14.80
2023-04-09T01:43:30.997Z,15.50
2023-04-09T01:46:02.466Z,14.90
2023-04-09T01:48:32.063Z,16.63
2023-04-09T01:51:01.248Z,15.53
2023-04-09T01:53:31.467Z,16.03
2023-04-09T01:56:01.956Z,15.23
2023-04-09T01:58:31.292Z,16.03
2023-04-09T02:01:07.181Z,16.47
2023-04-09T02:03:39.102Z,16.90
2023-04-09T02:06:15.986Z,15.57
2023-04-09T02:08:47.209Z,15.13
2023-04-09T02:11:18.888Z,15.73
2023-04-09T02:13:48.368Z,16.20
2023-04-09T02:16:19.449Z,15.80
2023-04-09T02:18:48.726Z,15.60
2023-04-09T02:21:18.964Z,14.70
2023-04-09T02:23:48.346Z,15.47
2023-04-09T02:26:17.544Z,15.30
2023-04-09T02:28:46.840Z,14.70
2023-04-09T02:31:17.801Z,14.30
2023-04-09T02:33:46.878Z,15.23
2023-04-09T02:36:16.086Z,13.63
2023-04-09T02:38:45.168Z,14.23
2023-04-09T02:41:14.462Z,14.70
2023-04-09T02:43:43.452Z,15.27
2023-04-09T02:46:12.716Z,14.97
2023-04-09T02:48:43.386Z,14.63
2023-04-09T02:51:12.477Z,16.00
2023-04-09T02:57:53.986Z,15.20
2023-04-09T03:00:23.190Z,14.73
2023-04-09T03:07:06.343Z,17.90
2023-04-09T03:09:35.537Z,18.30
2023-04-09T03:12:04.636Z,16.97
2023-04-09T03:14:38.020Z,19.73
2023-04-09T03:17:07.222Z,21.33
2023-04-09T03:19:36.412Z,27.33
2023-04-09T03:22:07.042Z,24.10
2023-04-09T03:24:36.243Z,17.70
2023-04-09T03:27:05.131Z,17.13
2023-04-09T03:29:34.429Z,17.73
2023-04-09T03:32:03.731Z,20.97
2023-04-09T03:34:32.708Z,19.80
2023-04-09T03:37:02.026Z,18.00
2023-04-09T03:44:16.200Z,24.63
2023-04-09T03:46:45.307Z,27.87
2023-04-09T03:53:41.035Z,26.47
2023-04-09T03:56:10.741Z,41.33
2023-04-09T04:02:53.326Z,26.10
2023-04-09T04:05:26.158Z,24.00
2023-04-09T04:07:55.348Z,27.87
2023-04-09T04:10:24.448Z,26.00
2023-04-09T04:12:55.927Z,25.90
2023-04-09T04:15:25.191Z,25.60
2023-04-09T04:17:56.058Z,25.20
2023-04-09T04:20:26.260Z,23.50
2023-04-09T04:22:55.448Z,25.03
2023-04-09T04:25:24.755Z,24.97
2023-04-09T04:27:55.371Z,24.00
2023-04-09T04:34:32.050Z,24.70
2023-04-09T04:37:01.263Z,24.87
2023-04-09T04:43:50.541Z,24.03
2023-04-09T04:46:21.040Z,22.33
2023-04-09T04:53:16.833Z,23.20
2023-04-09T05:00:06.226Z,22.57
2023-04-09T05:02:39.871Z,24.93
2023-04-09T05:09:29.012Z,21.67
2023-04-09T05:11:58.474Z,25.07
2023-04-09T05:18:52.198Z,27.00
2023-04-09T05:21:21.506Z,27.60
2023-04-09T05:23:50.495Z,26.27
2023-04-09T05:26:22.573Z,26.27
2023-04-09T05:28:52.888Z,24.90
2023-04-09T05:31:22.285Z,26.17
2023-04-09T05:33:51.266Z,24.63
2023-04-09T05:40:39.241Z,25.60
2023-04-09T05:43:09.880Z,25.60
2023-04-09T05:49:58.856Z,24.90
2023-04-09T05:52:29.084Z,26.30
2023-04-09T05:54:57.867Z,26.07
2023-04-09T05:57:28.288Z,28.13
2023-04-09T05:59:58.610Z,26.70
2023-04-09T06:02:27.985Z,26.13
2023-04-09T06:04:57.381Z,26.87
2023-04-09T06:07:26.608Z,27.10
2023-04-09T06:09:57.148Z,25.00
2023-04-09T06:12:26.231Z,25.33
2023-04-09T06:14:55.226Z,24.00
2023-04-09T06:17:25.772Z,25.70
2023-04-09T06:19:55.158Z,26.30
2023-04-09T06:22:24.356Z,25.87
2023-04-09T06:24:53.347Z,25.07
2023-04-09T06:31:40.900Z,28.03
2023-04-09T06:34:11.523Z,26.27
2023-04-09T06:40:59.082Z,25.33
2023-04-09T06:43:28.179Z,25.10
2023-04-09T06:50:17.458Z,24.03
2023-04-09T06:56:59.278Z,25.97
2023-04-09T06:59:28.471Z,25.47
2023-04-09T07:06:11.522Z,24.93
2023-04-09T07:08:40.905Z,24.03
2023-04-09T07:11:10.216Z,26.13
2023-04-09T07:13:39.413Z,24.30
2023-04-09T07:16:08.948Z,24.17
2023-04-09T07:18:38.238Z,27.60
2023-04-09T07:21:07.515Z,26.00
2023-04-09T07:23:38.860Z,25.43
2023-04-09T07:26:08.267Z,26.57
2023-04-09T07:28:37.456Z,38.37
2023-04-09T07:31:06.682Z,26.70
2023-04-09T07:37:41.505Z,26.83
2023-04-09T07:40:12.771Z,27.93
2023-04-09T07:47:01.220Z,25.70
2023-04-09T07:54:05.572Z,25.20
2023-04-09T07:56:39.388Z,26.17
2023-04-09T08:03:26.693Z,24.57
2023-04-09T08:05:55.918Z,24.30
2023-04-09T08:17:03.681Z,30.37
2023-04-09T08:19:32.851Z,26.20
2023-04-09T08:22:03.301Z,27.67
2023-04-09T08:24:32.896Z,29.03
2023-04-09T08:27:02.809Z,26.60
2023-04-09T08:29:32.310Z,26.00
2023-04-09T08:32:03.200Z,27.30
2023-04-09T08:34:32.344Z,25.60
2023-04-09T08:37:01.447Z,28.23
2023-04-09T08:39:30.533Z,25.70
2023-04-09T08:42:02.122Z,28.97
2023-04-09T08:44:31.903Z,27.30
2023-04-09T08:47:03.034Z,28.80
2023-04-09T08:49:32.455Z,28.50
2023-04-09T08:52:06.961Z,27.53
2023-04-09T08:54:36.286Z,27.77
2023-04-09T08:57:07.800Z,27.17
2023-04-09T08:59:38.241Z,29.00
2023-04-09T09:02:12.646Z,26.93
2023-04-09T09:04:48.819Z,28.00
2023-04-09T09:07:18.622Z,27.40
2023-04-09T09:09:58.369Z,26.13
2023-04-09T09:16:43.202Z,28.27
2023-04-09T09:23:39.300Z,27.23
2023-04-09T09:26:15.362Z,28.13
2023-04-09T09:33:07.832Z,26.57
2023-04-09T09:35:50.313Z,28.40
2023-04-09T09:42:56.953Z,25.17
2023-04-09T09:45:27.256Z,67.20
2023-04-09T09:51:24.738Z,24.10
2023-04-09T09:58:05.435Z,49.50
2023-04-09T10:00:35.960Z,26.00
2023-04-09T10:07:24.942Z,21.90
2023-04-09T10:18:39.036Z,21.03
2023-04-09T10:21:12.121Z,19.80
2023-04-09T10:28:02.642Z,18.07
2023-04-09T10:34:52.361Z,18.50
2023-04-09T10:37:24.000Z,15.17
2023-04-09T10:44:22.637Z,13.60
2023-04-09T10:46:52.294Z,13.63
2023-04-09T10:53:48.571Z,14.13
2023-04-09T11:00:31.234Z,15.30
2023-04-09T11:03:22.224Z,16.70
2023-04-09T11:10:06.288Z,20.50
2023-04-09T11:12:35.892Z,14.97
2023-04-09T11:19:04.392Z,22.47
2023-04-09T11:21:34.957Z,21.80
2023-04-09T11:24:05.040Z,21.60
2023-04-09T11:26:38.623Z,21.10
2023-04-09T11:29:08.559Z,21.33
2023-04-09T11:31:38.610Z,22.30
2023-04-09T11:34:07.864Z,30.30
2023-04-09T11:36:37.264Z,22.43
2023-04-09T11:39:06.777Z,19.90
2023-04-09T11:45:57.586Z,18.43
2023-04-09T11:48:27.103Z,18.87
2023-04-09T11:55:26.644Z,16.83
2023-04-09T11:57:59.087Z,17.93
2023-04-09T12:03:57.024Z,19.20
2023-04-09T12:10:47.934Z,17.67
2023-04-09T12:13:17.722Z,18.97
2023-04-09T12:20:08.809Z,20.60
2023-04-09T12:27:03.183Z,49.47
2023-04-09T12:29:33.815Z,20.90
2023-04-09T12:36:24.229Z,22.10
2023-04-09T12:38:55.578Z,20.20
2023-04-09T12:45:43.093Z,19.40
2023-04-09T12:48:12.225Z,19.60
2023-04-09T12:50:41.517Z,21.87
2023-04-09T12:53:12.150Z,21.83
2023-04-09T12:55:42.860Z,19.50
2023-04-09T13:02:20.044Z,26.80
2023-04-09T13:04:49.413Z,23.60
2023-04-09T13:11:39.499Z,14.10
2023-04-09T13:14:13.712Z,19.40
2023-04-09T13:16:43.662Z,15.00
2023-04-09T13:19:13.047Z,14.40
2023-04-09T13:21:42.226Z,14.40
2023-04-09T13:24:11.541Z,13.80
2023-04-09T13:26:42.355Z,12.97
2023-04-09T13:29:11.951Z,14.07
2023-04-09T13:31:42.296Z,14.93
2023-04-09T13:34:11.995Z,20.03
2023-04-09T13:36:41.502Z,14.53
2023-04-09T13:39:10.834Z,15.73
2023-04-09T13:41:41.632Z,15.57
2023-04-09T13:44:10.628Z,16.00
2023-04-09T13:46:40.182Z,16.70
2023-04-09T13:49:09.636Z,16.50
2023-04-09T13:51:38.525Z,20.80
2023-04-09T13:54:08.951Z,18.20
2023-04-09T13:56:37.941Z,16.47
2023-04-09T14:03:21.716Z,13.73
2023-04-09T14:05:51.310Z,15.33
2023-04-09T14:12:33.138Z,16.50
2023-04-09T14:23:22.651Z,15.03
2023-04-09T14:25:51.742Z,14.80
2023-04-09T14:32:46.155Z,14.17
2023-04-09T14:35:15.347Z,13.73
2023-04-09T14:37:44.746Z,14.10
2023-04-09T14:44:27.593Z,14.80
2023-04-09T14:46:57.223Z,15.50
2023-04-09T14:53:33.284Z,14.47
2023-04-09T14:56:04.642Z,15.17
2023-04-09T14:58:34.030Z,13.90
2023-04-09T15:01:05.185Z,14.60
2023-04-09T15:03:34.862Z,13.40
2023-04-09T15:06:04.180Z,14.10
2023-04-09T15:08:33.375Z,12.80
2023-04-09T15:11:02.471Z,13.63
2023-04-09T15:13:31.856Z,15.93
2023-04-09T15:16:01.406Z,15.17
2023-04-09T15:18:32.092Z,13.50
2023-04-09T15:21:01.403Z,16.00
2023-04-09T15:23:31.235Z,14.10
2023-04-09T15:26:00.308Z,12.90
2023-04-09T15:28:29.606Z,14.50
2023-04-09T15:30:58.909Z,14.00
2023-04-09T15:33:28.422Z,13.50
2023-04-09T15:40:11.660Z,12.73
2023-04-09T15:42:40.965Z,13.57
2023-04-09T15:49:29.143Z,15.37
2023-04-09T15:51:58.216Z,11.90
2023-04-09T15:54:27.819Z,26.70
2023-04-09T15:56:58.552Z,26.70
2023-04-09T15:59:27.553Z,19.70
2023-04-09T16:02:03.689Z,25.40
2023-04-09T16:04:35.514Z,26.73
2023-04-09T16:07:05.081Z,20.80
2023-04-09T16:09:34.169Z,26.63
2023-04-09T16:12:05.014Z,18.67
2023-04-09T16:14:34.608Z,18.47
2023-04-09T16:17:04.162Z,28.43
2023-04-09T16:19:33.721Z,15.80
2023-04-09T16:26:14.921Z,17.60
2023-04-09T16:28:45.962Z,15.50
2023-04-09T16:35:27.172Z,12.70
2023-04-09T16:37:56.973Z,15.47
2023-04-09T16:44:45.764Z,19.23
2023-04-09T16:51:27.459Z,16.83
2023-04-09T16:53:56.761Z,15.90
2023-04-09T17:00:47.418Z,18.00
2023-04-09T17:03:17.644Z,15.80
2023-04-09T17:09:18.765Z,16.27
2023-04-09T17:20:49.583Z,15.40
2023-04-09T17:23:19.062Z,16.17
2023-04-09T17:25:48.048Z,15.53
2023-04-09T17:28:18.949Z,15.50
2023-04-09T17:30:48.417Z,16.60
2023-04-09T17:33:17.485Z,15.20
2023-04-09T17:35:46.879Z,15.63
2023-04-09T17:38:21.574Z,16.23
2023-04-09T17:40:52.124Z,18.53
2023-04-09T17:43:21.145Z,18.33
2023-04-09T17:45:50.542Z,19.33
2023-04-09T17:48:19.729Z,17.37
2023-04-09T17:50:49.033Z,18.50
2023-04-09T17:57:37.810Z,16.83
2023-04-09T18:00:07.823Z,17.70
2023-04-09T18:06:56.509Z,15.00
2023-04-09T18:09:25.493Z,17.10
2023-04-09T18:11:56.736Z,15.57
2023-04-09T18:14:27.777Z,17.50
2023-04-09T18:16:57.184Z,16.23
2023-04-09T18:19:26.357Z,17.50
2023-04-09T18:21:55.672Z,18.50
2023-04-09T18:24:27.226Z,17.60
2023-04-09T18:27:00.525Z,18.63
2023-04-09T18:29:31.736Z,17.90
2023-04-09T18:32:01.271Z,19.60
2023-04-09T18:34:30.254Z,20.67
2023-04-09T18:36:59.661Z,20.47
2023-04-09T18:39:31.099Z,19.83
2023-04-09T18:41:59.893Z,18.07
2023-04-09T18:44:28.986Z,19.30
2023-04-09T18:46:59.951Z,19.27
2023-04-09T18:49:29.431Z,19.27
2023-04-09T18:51:58.521Z,17.57
2023-04-09T18:54:28.029Z,17.83
2023-04-09T18:56:57.936Z,16.57
2023-04-09T19:03:57.707Z,16.90
2023-04-09T19:06:28.520Z,19.40
2023-04-09T19:13:10.344Z,17.80
2023-04-09T19:15:39.936Z,15.87
2023-04-09T19:21:37.112Z,15.20
2023-04-09T19:28:25.179Z,14.77
2023-04-09T19:30:54.163Z,14.07
2023-04-09T19:33:23.667Z,14.13
2023-04-09T19:35:53.423Z,15.40
2023-04-09T19:38:24.829Z,15.07
2023-04-09T19:40:54.937Z,15.60
2023-04-09T19:43:28.549Z,15.10
2023-04-09T19:45:58.460Z,15.07
2023-04-09T19:48:27.752Z,15.30
2023-04-09T19:50:57.362Z,14.50
2023-04-09T19:53:28.714Z,15.20
2023-04-09T19:55:58.234Z,13.67
2023-04-09T19:58:27.609Z,16.90
2023-04-09T20:00:56.740Z,16.83
2023-04-09T20:03:26.700Z,18.60
2023-04-09T20:05:56.528Z,22.67
2023-04-09T20:08:25.824Z,19.00
2023-04-09T20:15:15.545Z,19.97
2023-04-09T20:17:47.119Z,18.77
2023-04-09T20:24:28.699Z,17.83
2023-04-09T20:26:59.880Z,18.93
2023-04-09T20:33:05.852Z,18.50
2023-04-09T20:40:07.083Z,18.13
2023-04-09T20:42:38.434Z,17.60
2023-04-09T20:49:23.371Z,33.10
2023-04-09T20:51:52.929Z,15.70
2023-04-09T20:54:23.554Z,16.83
2023-04-09T20:56:52.673Z,16.50
2023-04-09T20:59:22.049Z,16.43
2023-04-09T21:01:51.455Z,17.70
2023-04-09T21:04:22.519Z,17.93
2023-04-09T21:11:03.176Z,20.93
2023-04-09T21:13:40.453Z,19.17
2023-04-09T21:20:28.733Z,16.80
2023-04-09T21:22:58.044Z,18.20
2023-04-09T21:29:28.782Z,18.40
2023-04-09T21:36:17.336Z,19.00
2023-04-09T21:38:46.570Z,17.33
2023-04-09T21:45:27.670Z,18.00
2023-04-09T21:47:56.815Z,21.50
2023-04-09T21:50:26.065Z,17.63
2023-04-09T21:57:14.745Z,18.90
2023-04-09T21:59:44.146Z,21.57
2023-04-09T22:06:32.621Z,20.70
2023-04-09T22:09:02.177Z,21.97
2023-04-09T22:15:51.531Z,19.43
2023-04-09T22:22:34.153Z,19.43
2023-04-09T22:25:04.424Z,17.87
2023-04-09T22:31:47.706Z,17.30
2023-04-09T22:34:21.368Z,19.80
2023-04-09T22:41:04.059Z,20.33
2023-04-09T22:47:53.716Z,18.17
2023-04-09T22:50:23.159Z,17.60
2023-04-09T22:57:17.374Z,18.30
2023-04-09T22:59:46.463Z,18.90
2023-04-09T23:06:31.558Z,18.00
2023-04-09T23:13:18.793Z,18.20
2023-04-09T23:15:48.206Z,18.67
2023-04-09T23:22:37.696Z,17.40
2023-04-09T23:25:07.094Z,18.97
2023-04-09T23:31:06.227Z,18.20
2023-04-09T23:37:55.630Z,17.80
2023-04-09T23:40:24.908Z,19.43
2023-04-09T23:42:54.100Z,19.13
2023-04-09T23:45:50.125Z,17.20
2023-04-09T23:52:40.132Z,17.43
2023-04-09T23:59:31.472Z,18.40
